createdAt,value
2022-10-23T09:44:17.496Z,16.30
2022-10-23T09:49:24.509Z,16.30
2022-10-23T09:54:26.588Z,15.73
2022-10-23T09:59:34.510Z,15.67
2022-10-23T10:04:38.564Z,15.68
2022-10-23T10:09:40.708Z,15.85
2022-10-23T10:15:05.037Z,16.28
2022-10-23T10:20:07.313Z,16.90
2022-10-23T10:25:34.165Z,17.39
2022-10-23T10:30:42.297Z,17.33
2022-10-23T10:36:00.796Z,25.38
2022-10-23T10:41:05.756Z,28.53
2022-10-23T10:46:37.150Z,29.75
2022-10-23T10:52:01.334Z,26.85
2022-10-23T10:57:05.404Z,25.14
2022-10-23T11:02:13.752Z,28.54
2022-10-23T11:07:19.178Z,29.48
2022-10-23T11:12:26.547Z,28.71
2022-10-23T11:17:40.000Z,28.39
2022-10-23T11:23:21.238Z,29.21
2022-10-23T11:29:01.064Z,30.01
2022-10-23T11:34:08.892Z,31.20
2022-10-23T11:39:31.976Z,30.87
2022-10-23T11:44:45.005Z,27.84
2022-10-23T11:54:40.590Z,20.91
2022-10-23T11:59:45.394Z,20.91
2022-10-23T12:04:50.670Z,19.25
2022-10-23T12:09:59.449Z,19.57
2022-10-23T12:15:12.112Z,18.90
2022-10-23T12:20:14.072Z,19.56
2022-10-23T12:25:42.155Z,19.42
2022-10-23T12:31:02.889Z,18.61
2022-10-23T12:36:15.974Z,18.80
2022-10-23T12:41:29.659Z,18.56
2022-10-23T12:46:33.177Z,19.04
2022-10-23T12:51:35.785Z,18.36
2022-10-23T12:56:39.018Z,17.88
2022-10-23T13:01:43.296Z,17.56
2022-10-23T13:06:45.979Z,17.43
2022-10-23T13:11:49.369Z,17.27
2022-10-23T13:17:03.135Z,17.89
2022-10-23T13:22:18.524Z,17.32
2022-10-23T13:27:34.194Z,17.23
2022-10-23T13:32:36.272Z,16.89
2022-10-23T13:42:53.318Z,16.52
2022-10-23T13:47:55.471Z,16.69
2022-10-23T13:52:58.395Z,16.58
2022-10-23T13:58:00.444Z,16.54
2022-10-23T14:03:02.479Z,16.50
2022-10-23T14:08:04.535Z,16.38
2022-10-23T14:13:06.771Z,16.23
2022-10-23T14:18:08.944Z,16.09
2022-10-23T14:23:11.022Z,15.99
2022-10-23T14:28:13.089Z,16.08
2022-10-23T14:33:16.723Z,15.93
2022-10-23T14:38:18.766Z,15.96
2022-10-23T14:43:21.913Z,15.99
2022-10-23T14:48:23.928Z,15.99
2022-10-23T14:53:25.931Z,15.93
2022-10-23T14:58:28.472Z,15.97
2022-10-23T15:03:30.736Z,15.88
2022-10-23T15:08:33.529Z,15.84
2022-10-23T15:13:35.520Z,15.88
2022-10-23T15:23:46.011Z,15.76
2022-10-23T15:28:53.307Z,15.77
2022-10-23T15:33:58.706Z,15.72
2022-10-23T15:39:01.035Z,15.75
2022-10-23T15:44:05.244Z,15.74
2022-10-23T15:49:08.554Z,15.73
2022-10-23T15:54:18.994Z,15.65
2022-10-23T15:59:24.547Z,15.69
2022-10-23T16:04:26.560Z,15.63
2022-10-23T16:09:29.752Z,15.58
2022-10-23T16:14:31.744Z,15.51
2022-10-23T16:19:34.270Z,15.47
2022-10-23T16:24:36.412Z,15.46
2022-10-23T16:29:38.416Z,15.43
2022-10-23T16:34:40.459Z,15.44
2022-10-23T16:39:42.431Z,15.37
2022-10-23T16:44:44.437Z,15.53
2022-10-23T16:49:46.452Z,15.57
2022-10-23T16:54:48.457Z,15.64
2022-10-23T16:59:50.458Z,15.76
2022-10-23T17:04:52.535Z,15.76
2022-10-23T17:09:54.552Z,15.87
2022-10-23T17:14:56.594Z,16.05
2022-10-23T17:19:58.639Z,16.05
2022-10-23T17:25:00.674Z,16.04
2022-10-23T17:30:02.831Z,16.00
2022-10-23T17:35:06.501Z,15.92
2022-10-23T17:40:09.120Z,15.85
2022-10-23T17:45:11.362Z,15.87
2022-10-23T17:50:13.910Z,15.76
2022-10-23T17:55:15.965Z,15.79
2022-10-23T18:00:18.047Z,15.69
2022-10-23T18:05:20.220Z,15.68
2022-10-23T18:10:22.254Z,15.69
2022-10-23T18:15:24.254Z,15.60
2022-10-23T18:20:26.265Z,15.57
2022-10-23T18:25:28.298Z,15.55
2022-10-23T18:30:30.368Z,15.50
2022-10-23T18:35:35.863Z,15.44
2022-10-23T18:40:38.340Z,15.43
2022-10-23T18:45:42.661Z,15.48
2022-10-23T18:50:44.646Z,15.44
2022-10-23T18:55:50.974Z,15.44
2022-10-23T19:00:53.021Z,15.34
2022-10-23T19:05:55.028Z,15.36
2022-10-23T19:11:00.193Z,15.34
2022-10-23T19:16:06.022Z,15.33
2022-10-23T19:21:08.204Z,15.24
2022-10-23T19:26:13.345Z,15.23
2022-10-23T19:31:16.048Z,15.25
2022-10-23T19:36:21.009Z,15.21
